sensor_id;sensor_type;location;lat;lon;timestamp;P1;durP1;ratioP1;P2;durP2;ratioP2
11490;SDS011;5802;52.832;4.758;2022-07-29T00:00:07;1.77;;;0.90;;
11490;SDS011;5802;52.832;4.758;2022-07-29T00:02:35;1.63;;;0.90;;
11490;SDS011;5802;52.832;4.758;2022-07-29T00:05:03;1.63;;;0.90;;
11490;SDS011;5802;52.832;4.758;2022-07-29T00:07:30;0.63;;;0.60;;
11490;SDS011;5802;52.832;4.758;2022-07-29T00:09:57;1.55;;;0.73;;
11490;SDS011;5802;52.832;4.758;2022-07-29T00:12:24;1.10;;;0.80;;
11490;SDS011;5802;52.832;4.758;2022-07-29T00:14:52;2.78;;;0.75;;
11490;SDS011;5802;52.832;4.758;2022-07-29T00:17:20;2.38;;;0.80;;
11490;SDS011;5802;52.832;4.758;2022-07-29T00:19:53;0.82;;;0.80;;
11490;SDS011;5802;52.832;4.758;2022-07-29T00:22:19;1.27;;;0.80;;
11490;SDS011;5802;52.832;4.758;2022-07-29T00:24:47;1.60;;;0.80;;
11490;SDS011;5802;52.832;4.758;2022-07-29T00:27:14;1.48;;;0.68;;
11490;SDS011;5802;52.832;4.758;2022-07-29T00:29:41;1.20;;;0.80;;
11490;SDS011;5802;52.832;4.758;2022-07-29T00:32:09;1.45;;;0.73;;
11490;SDS011;5802;52.832;4.758;2022-07-29T00:34:36;1.13;;;0.82;;
11490;SDS011;5802;52.832;4.758;2022-07-29T00:37:20;1.92;;;0.60;;
11490;SDS011;5802;52.832;4.758;2022-07-29T00:39:46;1.15;;;0.73;;
11490;SDS011;5802;52.832;4.758;2022-07-29T00:42:13;2.30;;;1.00;;
11490;SDS011;5802;52.832;4.758;2022-07-29T00:44:41;1.02;;;0.82;;
11490;SDS011;5802;52.832;4.758;2022-07-29T00:47:12;1.30;;;0.70;;
11490;SDS011;5802;52.832;4.758;2022-07-29T00:49:39;0.98;;;0.70;;
11490;SDS011;5802;52.832;4.758;2022-07-29T00:52:08;0.63;;;0.63;;
11490;SDS011;5802;52.832;4.758;2022-07-29T00:54:35;1.10;;;0.90;;
11490;SDS011;5802;52.832;4.758;2022-07-29T00:57:04;1.95;;;0.90;;
11490;SDS011;5802;52.832;4.758;2022-07-29T00:59:32;1.80;;;0.90;;
11490;SDS011;5802;52.832;4.758;2022-07-29T01:01:59;1.63;;;0.90;;
11490;SDS011;5802;52.832;4.758;2022-07-29T01:04:27;1.02;;;0.70;;
11490;SDS011;5802;52.832;4.758;2022-07-29T01:06:55;1.15;;;0.70;;
11490;SDS011;5802;52.832;4.758;2022-07-29T01:09:22;1.27;;;0.90;;
11490;SDS011;5802;52.832;4.758;2022-07-29T01:11:50;0.80;;;0.60;;
11490;SDS011;5802;52.832;4.758;2022-07-29T01:14:17;5.13;;;0.90;;
11490;SDS011;5802;52.832;4.758;2022-07-29T01:16:50;0.88;;;0.73;;
11490;SDS011;5802;52.832;4.758;2022-07-29T01:19:36;1.00;;;0.70;;
11490;SDS011;5802;52.832;4.758;2022-07-29T01:22:18;2.03;;;0.80;;
11490;SDS011;5802;52.832;4.758;2022-07-29T01:25:02;0.82;;;0.70;;
11490;SDS011;5802;52.832;4.758;2022-07-29T01:27:50;1.13;;;0.70;;
11490;SDS011;5802;52.832;4.758;2022-07-29T01:30:28;1.58;;;1.00;;
11490;SDS011;5802;52.832;4.758;2022-07-29T01:32:58;1.80;;;0.80;;
11490;SDS011;5802;52.832;4.758;2022-07-29T01:35:30;0.80;;;0.80;;
11490;SDS011;5802;52.832;4.758;2022-07-29T01:38:05;1.08;;;0.82;;
11490;SDS011;5802;52.832;4.758;2022-07-29T01:40:35;2.88;;;0.70;;
11490;SDS011;5802;52.832;4.758;2022-07-29T01:43:13;0.88;;;0.65;;
11490;SDS011;5802;52.832;4.758;2022-07-29T01:45:44;1.02;;;0.70;;
11490;SDS011;5802;52.832;4.758;2022-07-29T01:48:16;1.10;;;0.68;;
11490;SDS011;5802;52.832;4.758;2022-07-29T01:50:48;0.82;;;0.80;;
11490;SDS011;5802;52.832;4.758;2022-07-29T01:53:20;0.80;;;0.73;;
11490;SDS011;5802;52.832;4.758;2022-07-29T01:55:55;0.70;;;0.70;;
11490;SDS011;5802;52.832;4.758;2022-07-29T01:58:25;1.10;;;0.75;;
11490;SDS011;5802;52.832;4.758;2022-07-29T02:00:56;0.90;;;0.70;;
11490;SDS011;5802;52.832;4.758;2022-07-29T02:03:24;1.20;;;0.88;;
11490;SDS011;5802;52.832;4.758;2022-07-29T02:05:54;1.00;;;0.75;;
11490;SDS011;5802;52.832;4.758;2022-07-29T02:08:24;0.88;;;0.77;;
11490;SDS011;5802;52.832;4.758;2022-07-29T02:10:52;0.80;;;0.70;;
11490;SDS011;5802;52.832;4.758;2022-07-29T02:13:21;1.00;;;0.80;;
11490;SDS011;5802;52.832;4.758;2022-07-29T02:15:50;1.00;;;0.80;;
11490;SDS011;5802;52.832;4.758;2022-07-29T02:18:20;1.58;;;0.70;;
11490;SDS011;5802;52.832;4.758;2022-07-29T02:20:52;0.77;;;0.73;;
11490;SDS011;5802;52.832;4.758;2022-07-29T02:23:21;0.77;;;0.75;;
11490;SDS011;5802;52.832;4.758;2022-07-29T02:25:49;1.40;;;0.70;;
11490;SDS011;5802;52.832;4.758;2022-07-29T02:28:19;1.10;;;0.70;;
11490;SDS011;5802;52.832;4.758;2022-07-29T02:30:48;0.90;;;0.65;;
11490;SDS011;5802;52.832;4.758;2022-07-29T02:33:19;1.38;;;0.88;;
11490;SDS011;5802;52.832;4.758;2022-07-29T02:35:47;1.23;;;0.70;;
11490;SDS011;5802;52.832;4.758;2022-07-29T02:38:16;1.58;;;0.80;;
11490;SDS011;5802;52.832;4.758;2022-07-29T02:41:01;1.13;;;0.70;;
11490;SDS011;5802;52.832;4.758;2022-07-29T02:43:31;0.75;;;0.70;;
11490;SDS011;5802;52.832;4.758;2022-07-29T02:46:01;1.08;;;0.77;;
11490;SDS011;5802;52.832;4.758;2022-07-29T02:48:34;0.80;;;0.60;;
11490;SDS011;5802;52.832;4.758;2022-07-29T02:51:11;1.27;;;0.90;;
11490;SDS011;5802;52.832;4.758;2022-07-29T02:53:43;0.80;;;0.80;;
11490;SDS011;5802;52.832;4.758;2022-07-29T02:56:15;0.68;;;0.68;;
11490;SDS011;5802;52.832;4.758;2022-07-29T02:58:45;0.85;;;0.65;;
11490;SDS011;5802;52.832;4.758;2022-07-29T03:01:20;1.88;;;0.68;;
11490;SDS011;5802;52.832;4.758;2022-07-29T03:03:50;1.02;;;0.60;;
11490;SDS011;5802;52.832;4.758;2022-07-29T03:06:20;0.73;;;0.73;;
11490;SDS011;5802;52.832;4.758;2022-07-29T03:08:49;1.73;;;0.80;;
11490;SDS011;5802;52.832;4.758;2022-07-29T03:11:17;1.42;;;0.80;;
11490;SDS011;5802;52.832;4.758;2022-07-29T03:13:44;1.33;;;0.80;;
11490;SDS011;5802;52.832;4.758;2022-07-29T03:16:11;0.80;;;0.70;;
11490;SDS011;5802;52.832;4.758;2022-07-29T03:18:39;2.13;;;0.75;;
11490;SDS011;5802;52.832;4.758;2022-07-29T03:21:07;1.40;;;1.10;;
11490;SDS011;5802;52.832;4.758;2022-07-29T03:23:34;2.55;;;0.70;;
11490;SDS011;5802;52.832;4.758;2022-07-29T03:26:01;1.98;;;1.05;;
11490;SDS011;5802;52.832;4.758;2022-07-29T03:28:28;1.30;;;1.13;;
11490;SDS011;5802;52.832;4.758;2022-07-29T03:30:55;2.10;;;1.00;;
11490;SDS011;5802;52.832;4.758;2022-07-29T03:33:22;2.17;;;1.20;;
11490;SDS011;5802;52.832;4.758;2022-07-29T03:35:49;2.00;;;1.10;;
11490;SDS011;5802;52.832;4.758;2022-07-29T03:38:17;2.25;;;1.20;;
11490;SDS011;5802;52.832;4.758;2022-07-29T03:40:45;4.07;;;1.40;;
11490;SDS011;5802;52.832;4.758;2022-07-29T03:43:20;1.52;;;1.23;;
11490;SDS011;5802;52.832;4.758;2022-07-29T03:45:51;4.43;;;1.15;;
11490;SDS011;5802;52.832;4.758;2022-07-29T03:48:21;2.53;;;1.33;;
11490;SDS011;5802;52.832;4.758;2022-07-29T03:50:49;2.33;;;1.17;;
11490;SDS011;5802;52.832;4.758;2022-07-29T03:53:18;1.80;;;1.20;;
11490;SDS011;5802;52.832;4.758;2022-07-29T03:55:46;2.65;;;1.13;;
11490;SDS011;5802;52.832;4.758;2022-07-29T03:58:16;2.80;;;1.20;;
11490;SDS011;5802;52.832;4.758;2022-07-29T04:00:45;1.63;;;1.10;;
11490;SDS011;5802;52.832;4.758;2022-07-29T04:03:13;2.78;;;1.40;;
11490;SDS011;5802;52.832;4.758;2022-07-29T04:05:40;2.63;;;1.40;;
11490;SDS011;5802;52.832;4.758;2022-07-29T04:08:06;2.03;;;1.20;;
11490;SDS011;5802;52.832;4.758;2022-07-29T04:10:34;1.60;;;1.38;;
11490;SDS011;5802;52.832;4.758;2022-07-29T04:13:03;2.50;;;1.10;;
11490;SDS011;5802;52.832;4.758;2022-07-29T04:15:29;1.88;;;1.30;;
11490;SDS011;5802;52.832;4.758;2022-07-29T04:17:56;7.25;;;1.42;;
11490;SDS011;5802;52.832;4.758;2022-07-29T04:20:23;3.63;;;1.35;;
11490;SDS011;5802;52.832;4.758;2022-07-29T04:22:50;2.75;;;1.30;;
11490;SDS011;5802;52.832;4.758;2022-07-29T04:25:17;3.65;;;1.55;;
11490;SDS011;5802;52.832;4.758;2022-07-29T04:27:45;5.43;;;1.63;;
11490;SDS011;5802;52.832;4.758;2022-07-29T04:30:41;2.10;;;1.30;;
11490;SDS011;5802;52.832;4.758;2022-07-29T04:33:08;3.15;;;1.40;;
11490;SDS011;5802;52.832;4.758;2022-07-29T04:35:35;6.22;;;1.27;;
11490;SDS011;5802;52.832;4.758;2022-07-29T04:38:03;1.92;;;1.23;;
11490;SDS011;5802;52.832;4.758;2022-07-29T04:40:30;2.00;;;1.15;;
11490;SDS011;5802;52.832;4.758;2022-07-29T04:42:58;3.65;;;1.40;;
11490;SDS011;5802;52.832;4.758;2022-07-29T04:45:25;1.85;;;1.27;;
11490;SDS011;5802;52.832;4.758;2022-07-29T04:47:53;1.42;;;1.10;;
11490;SDS011;5802;52.832;4.758;2022-07-29T04:50:20;2.20;;;1.30;;
11490;SDS011;5802;52.832;4.758;2022-07-29T04:52:47;2.72;;;1.33;;
11490;SDS011;5802;52.832;4.758;2022-07-29T04:55:14;2.25;;;1.23;;
11490;SDS011;5802;52.832;4.758;2022-07-29T04:57:40;2.10;;;1.35;;
11490;SDS011;5802;52.832;4.758;2022-07-29T05:00:08;3.28;;;1.40;;
11490;SDS011;5802;52.832;4.758;2022-07-29T05:02:35;2.03;;;1.50;;
11490;SDS011;5802;52.832;4.758;2022-07-29T05:05:04;2.03;;;1.05;;
11490;SDS011;5802;52.832;4.758;2022-07-29T05:07:31;1.80;;;1.27;;
11490;SDS011;5802;52.832;4.758;2022-07-29T05:09:58;2.55;;;1.20;;
11490;SDS011;5802;52.832;4.758;2022-07-29T05:12:25;2.08;;;1.00;;
11490;SDS011;5802;52.832;4.758;2022-07-29T05:14:52;1.38;;;1.05;;
11490;SDS011;5802;52.832;4.758;2022-07-29T05:17:19;2.25;;;1.10;;
11490;SDS011;5802;52.832;4.758;2022-07-29T05:19:46;1.73;;;1.10;;
11490;SDS011;5802;52.832;4.758;2022-07-29T05:22:14;1.50;;;1.10;;
11490;SDS011;5802;52.832;4.758;2022-07-29T05:24:41;3.10;;;1.10;;
11490;SDS011;5802;52.832;4.758;2022-07-29T05:27:08;2.50;;;1.15;;
11490;SDS011;5802;52.832;4.758;2022-07-29T05:29:34;2.67;;;1.10;;
11490;SDS011;5802;52.832;4.758;2022-07-29T05:32:09;2.45;;;1.35;;
11490;SDS011;5802;52.832;4.758;2022-07-29T05:34:35;2.03;;;1.25;;
11490;SDS011;5802;52.832;4.758;2022-07-29T05:37:02;2.75;;;1.23;;
11490;SDS011;5802;52.832;4.758;2022-07-29T05:39:31;2.22;;;1.30;;
11490;SDS011;5802;52.832;4.758;2022-07-29T05:41:57;1.88;;;1.42;;
11490;SDS011;5802;52.832;4.758;2022-07-29T05:44:24;3.22;;;1.08;;
11490;SDS011;5802;52.832;4.758;2022-07-29T05:46:51;1.42;;;0.98;;
11490;SDS011;5802;52.832;4.758;2022-07-29T05:49:17;2.30;;;1.10;;
11490;SDS011;5802;52.832;4.758;2022-07-29T05:51:44;1.35;;;1.10;;
11490;SDS011;5802;52.832;4.758;2022-07-29T05:54:12;1.90;;;1.15;;
11490;SDS011;5802;52.832;4.758;2022-07-29T05:56:47;3.55;;;1.00;;
11490;SDS011;5802;52.832;4.758;2022-07-29T05:59:14;1.70;;;1.10;;
11490;SDS011;5802;52.832;4.758;2022-07-29T06:01:41;1.65;;;1.08;;
11490;SDS011;5802;52.832;4.758;2022-07-29T06:04:07;1.48;;;1.10;;
11490;SDS011;5802;52.832;4.758;2022-07-29T06:06:34;1.83;;;1.10;;
11490;SDS011;5802;52.832;4.758;2022-07-29T06:09:01;1.58;;;1.00;;
11490;SDS011;5802;52.832;4.758;2022-07-29T06:11:28;1.55;;;1.02;;
11490;SDS011;5802;52.832;4.758;2022-07-29T06:13:56;1.75;;;1.00;;
11490;SDS011;5802;52.832;4.758;2022-07-29T06:16:23;3.38;;;1.00;;
11490;SDS011;5802;52.832;4.758;2022-07-29T06:18:50;1.38;;;1.00;;
11490;SDS011;5802;52.832;4.758;2022-07-29T06:21:17;1.92;;;1.17;;
11490;SDS011;5802;52.832;4.758;2022-07-29T06:23:43;1.25;;;1.00;;
11490;SDS011;5802;52.832;4.758;2022-07-29T06:26:11;2.45;;;1.23;;
11490;SDS011;5802;52.832;4.758;2022-07-29T06:28:38;1.95;;;1.13;;
11490;SDS011;5802;52.832;4.758;2022-07-29T06:31:06;1.80;;;1.10;;
11490;SDS011;5802;52.832;4.758;2022-07-29T06:33:33;2.75;;;1.20;;
11490;SDS011;5802;52.832;4.758;2022-07-29T06:35:59;3.05;;;1.23;;
11490;SDS011;5802;52.832;4.758;2022-07-29T06:38:26;1.73;;;1.02;;
11490;SDS011;5802;52.832;4.758;2022-07-29T06:40:53;2.67;;;0.98;;
11490;SDS011;5802;52.832;4.758;2022-07-29T06:43:27;2.33;;;1.20;;
11490;SDS011;5802;52.832;4.758;2022-07-29T06:45:56;2.15;;;1.13;;
11490;SDS011;5802;52.832;4.758;2022-07-29T06:48:25;3.47;;;1.15;;
11490;SDS011;5802;52.832;4.758;2022-07-29T06:50:53;2.08;;;1.00;;
11490;SDS011;5802;52.832;4.758;2022-07-29T06:53:20;1.98;;;1.20;;
11490;SDS011;5802;52.832;4.758;2022-07-29T06:55:47;3.25;;;1.42;;
11490;SDS011;5802;52.832;4.758;2022-07-29T06:58:14;4.07;;;1.20;;
11490;SDS011;5802;52.832;4.758;2022-07-29T07:00:43;2.97;;;1.27;;
11490;SDS011;5802;52.832;4.758;2022-07-29T07:03:09;1.40;;;0.90;;
11490;SDS011;5802;52.832;4.758;2022-07-29T07:05:37;1.70;;;1.30;;
11490;SDS011;5802;52.832;4.758;2022-07-29T07:08:04;1.98;;;1.20;;
11490;SDS011;5802;52.832;4.758;2022-07-29T07:10:33;2.72;;;1.20;;
11490;SDS011;5802;52.832;4.758;2022-07-29T07:13:01;1.55;;;1.00;;
11490;SDS011;5802;52.832;4.758;2022-07-29T07:15:28;3.05;;;1.10;;
11490;SDS011;5802;52.832;4.758;2022-07-29T07:17:55;1.98;;;1.08;;
11490;SDS011;5802;52.832;4.758;2022-07-29T07:20:22;1.70;;;1.13;;
11490;SDS011;5802;52.832;4.758;2022-07-29T07:22:50;2.03;;;1.20;;
11490;SDS011;5802;52.832;4.758;2022-07-29T07:25:17;2.47;;;1.17;;
11490;SDS011;5802;52.832;4.758;2022-07-29T07:27:43;2.53;;;1.30;;
11490;SDS011;5802;52.832;4.758;2022-07-29T07:30:14;2.38;;;1.13;;
11490;SDS011;5802;52.832;4.758;2022-07-29T07:32:41;2.35;;;1.13;;
11490;SDS011;5802;52.832;4.758;2022-07-29T07:35:09;2.30;;;1.27;;
11490;SDS011;5802;52.832;4.758;2022-07-29T07:37:36;2.95;;;1.20;;
11490;SDS011;5802;52.832;4.758;2022-07-29T07:40:07;1.70;;;1.30;;
11490;SDS011;5802;52.832;4.758;2022-07-29T07:42:36;3.10;;;1.08;;
11490;SDS011;5802;52.832;4.758;2022-07-29T07:45:03;1.35;;;0.90;;
11490;SDS011;5802;52.832;4.758;2022-07-29T07:47:31;1.52;;;1.23;;
11490;SDS011;5802;52.832;4.758;2022-07-29T07:49:58;2.30;;;0.90;;
11490;SDS011;5802;52.832;4.758;2022-07-29T07:52:25;0.95;;;0.85;;
11490;SDS011;5802;52.832;4.758;2022-07-29T07:54:51;1.48;;;1.13;;
11490;SDS011;5802;52.832;4.758;2022-07-29T07:57:19;1.88;;;0.80;;
11490;SDS011;5802;52.832;4.758;2022-07-29T07:59:46;2.50;;;1.25;;
11490;SDS011;5802;52.832;4.758;2022-07-29T08:02:13;1.83;;;1.00;;
11490;SDS011;5802;52.832;4.758;2022-07-29T08:04:40;2.75;;;1.25;;
11490;SDS011;5802;52.832;4.758;2022-07-29T08:07:07;2.13;;;1.15;;
11490;SDS011;5802;52.832;4.758;2022-07-29T08:09:34;3.50;;;1.17;;
11490;SDS011;5802;52.832;4.758;2022-07-29T08:12:01;2.15;;;1.15;;
11490;SDS011;5802;52.832;4.758;2022-07-29T08:14:31;1.63;;;1.10;;
11490;SDS011;5802;52.832;4.758;2022-07-29T08:16:59;1.42;;;1.00;;
11490;SDS011;5802;52.832;4.758;2022-07-29T08:19:26;1.27;;;0.80;;
11490;SDS011;5802;52.832;4.758;2022-07-29T08:21:53;1.50;;;1.05;;
11490;SDS011;5802;52.832;4.758;2022-07-29T08:24:20;1.50;;;1.10;;
11490;SDS011;5802;52.832;4.758;2022-07-29T08:27:05;1.20;;;1.10;;
11490;SDS011;5802;52.832;4.758;2022-07-29T08:29:36;1.55;;;1.15;;
11490;SDS011;5802;52.832;4.758;2022-07-29T08:32:03;5.20;;;1.15;;
11490;SDS011;5802;52.832;4.758;2022-07-29T08:34:31;1.75;;;1.17;;
11490;SDS011;5802;52.832;4.758;2022-07-29T08:36:58;1.30;;;1.05;;
11490;SDS011;5802;52.832;4.758;2022-07-29T08:39:24;2.20;;;1.20;;
11490;SDS011;5802;52.832;4.758;2022-07-29T08:41:51;3.55;;;1.42;;
11490;SDS011;5802;52.832;4.758;2022-07-29T08:44:20;1.05;;;0.90;;
11490;SDS011;5802;52.832;4.758;2022-07-29T08:46:48;1.40;;;1.10;;
11490;SDS011;5802;52.832;4.758;2022-07-29T08:49:15;1.48;;;1.10;;
11490;SDS011;5802;52.832;4.758;2022-07-29T08:51:42;2.30;;;1.23;;
11490;SDS011;5802;52.832;4.758;2022-07-29T08:54:09;3.45;;;1.30;;
11490;SDS011;5802;52.832;4.758;2022-07-29T08:56:37;2.13;;;1.20;;
11490;SDS011;5802;52.832;4.758;2022-07-29T08:59:06;5.40;;;1.00;;
11490;SDS011;5802;52.832;4.758;2022-07-29T09:01:36;2.50;;;1.02;;
11490;SDS011;5802;52.832;4.758;2022-07-29T09:04:08;2.25;;;1.20;;
11490;SDS011;5802;52.832;4.758;2022-07-29T09:06:39;1.83;;;1.05;;
11490;SDS011;5802;52.832;4.758;2022-07-29T09:09:09;2.92;;;1.10;;
11490;SDS011;5802;52.832;4.758;2022-07-29T09:11:36;1.63;;;1.13;;
11490;SDS011;5802;52.832;4.758;2022-07-29T09:14:03;2.15;;;0.93;;
11490;SDS011;5802;52.832;4.758;2022-07-29T09:16:47;3.28;;;0.98;;
11490;SDS011;5802;52.832;4.758;2022-07-29T09:19:25;2.30;;;1.08;;
11490;SDS011;5802;52.832;4.758;2022-07-29T09:21:55;1.83;;;1.10;;
11490;SDS011;5802;52.832;4.758;2022-07-29T09:24:22;2.22;;;1.23;;
11490;SDS011;5802;52.832;4.758;2022-07-29T09:26:49;3.67;;;1.40;;
11490;SDS011;5802;52.832;4.758;2022-07-29T09:29:17;2.90;;;1.20;;
11490;SDS011;5802;52.832;4.758;2022-07-29T09:31:45;4.25;;;1.70;;
11490;SDS011;5802;52.832;4.758;2022-07-29T09:34:13;5.57;;;1.88;;
11490;SDS011;5802;52.832;4.758;2022-07-29T09:36:43;5.25;;;2.10;;
11490;SDS011;5802;52.832;4.758;2022-07-29T09:39:11;3.03;;;2.13;;
11490;SDS011;5802;52.832;4.758;2022-07-29T09:41:46;4.13;;;2.08;;
11490;SDS011;5802;52.832;4.758;2022-07-29T09:44:13;3.00;;;1.90;;
11490;SDS011;5802;52.832;4.758;2022-07-29T09:46:40;3.65;;;1.90;;
11490;SDS011;5802;52.832;4.758;2022-07-29T09:49:19;4.50;;;2.00;;
11490;SDS011;5802;52.832;4.758;2022-07-29T09:51:47;2.95;;;1.70;;
11490;SDS011;5802;52.832;4.758;2022-07-29T09:54:25;5.40;;;1.75;;
11490;SDS011;5802;52.832;4.758;2022-07-29T09:56:52;3.33;;;1.73;;
11490;SDS011;5802;52.832;4.758;2022-07-29T09:59:20;4.13;;;1.88;;
11490;SDS011;5802;52.832;4.758;2022-07-29T10:01:51;2.58;;;1.58;;
11490;SDS011;5802;52.832;4.758;2022-07-29T10:04:18;3.00;;;1.33;;
11490;SDS011;5802;52.832;4.758;2022-07-29T10:06:56;3.08;;;1.58;;
11490;SDS011;5802;52.832;4.758;2022-07-29T10:09:24;2.00;;;1.58;;
11490;SDS011;5802;52.832;4.758;2022-07-29T10:12:04;2.58;;;1.60;;
11490;SDS011;5802;52.832;4.758;2022-07-29T10:14:32;5.40;;;1.48;;
11490;SDS011;5802;52.832;4.758;2022-07-29T10:16:59;4.40;;;1.50;;
11490;SDS011;5802;52.832;4.758;2022-07-29T10:19:27;4.18;;;1.60;;
11490;SDS011;5802;52.832;4.758;2022-07-29T10:21:57;3.15;;;1.52;;
11490;SDS011;5802;52.832;4.758;2022-07-29T10:24:24;3.20;;;1.50;;
11490;SDS011;5802;52.832;4.758;2022-07-29T10:26:52;2.90;;;1.33;;
11490;SDS011;5802;52.832;4.758;2022-07-29T10:29:24;3.33;;;1.52;;
11490;SDS011;5802;52.832;4.758;2022-07-29T10:31:55;3.58;;;1.60;;
11490;SDS011;5802;52.832;4.758;2022-07-29T10:34:35;2.65;;;1.52;;
11490;SDS011;5802;52.832;4.758;2022-07-29T10:37:16;4.93;;;1.58;;
11490;SDS011;5802;52.832;4.758;2022-07-29T10:39:53;3.50;;;1.30;;
11490;SDS011;5802;52.832;4.758;2022-07-29T10:42:25;3.55;;;1.42;;
11490;SDS011;5802;52.832;4.758;2022-07-29T10:44:55;2.30;;;1.38;;
11490;SDS011;5802;52.832;4.758;2022-07-29T10:47:23;4.43;;;1.30;;
11490;SDS011;5802;52.832;4.758;2022-07-29T10:49:57;1.58;;;1.25;;
11490;SDS011;5802;52.832;4.758;2022-07-29T10:52:25;3.00;;;1.50;;
11490;SDS011;5802;52.832;4.758;2022-07-29T10:55:30;3.85;;;1.65;;
11490;SDS011;5802;52.832;4.758;2022-07-29T10:58:11;3.15;;;1.67;;
11490;SDS011;5802;52.832;4.758;2022-07-29T11:00:45;5.75;;;1.77;;
11490;SDS011;5802;52.832;4.758;2022-07-29T11:06:11;1.55;;;1.05;;
11490;SDS011;5802;52.832;4.758;2022-07-29T11:08:41;3.17;;;1.13;;
11490;SDS011;5802;52.832;4.758;2022-07-29T11:14:03;3.15;;;1.77;;
11490;SDS011;5802;52.832;4.758;2022-07-29T11:19:25;2.78;;;1.50;;
11490;SDS011;5802;52.832;4.758;2022-07-29T11:21:52;2.13;;;1.30;;
11490;SDS011;5802;52.832;4.758;2022-07-29T11:24:21;2.28;;;1.30;;
11490;SDS011;5802;52.832;4.758;2022-07-29T11:27:08;3.05;;;1.60;;
11490;SDS011;5802;52.832;4.758;2022-07-29T11:29:38;3.08;;;1.38;;
11490;SDS011;5802;52.832;4.758;2022-07-29T11:32:10;3.38;;;1.63;;
11490;SDS011;5802;52.832;4.758;2022-07-29T11:34:39;2.63;;;1.30;;
11490;SDS011;5802;52.832;4.758;2022-07-29T11:37:16;3.63;;;1.50;;
11490;SDS011;5802;52.832;4.758;2022-07-29T11:39:47;3.13;;;1.50;;
11490;SDS011;5802;52.832;4.758;2022-07-29T11:42:36;4.13;;;1.80;;
11490;SDS011;5802;52.832;4.758;2022-07-29T11:45:04;4.30;;;1.52;;
11490;SDS011;5802;52.832;4.758;2022-07-29T11:47:32;7.10;;;2.03;;
11490;SDS011;5802;52.832;4.758;2022-07-29T11:50:01;8.20;;;1.92;;
11490;SDS011;5802;52.832;4.758;2022-07-29T11:52:32;8.57;;;2.53;;
11490;SDS011;5802;52.832;4.758;2022-07-29T11:55:01;11.00;;;2.53;;
11490;SDS011;5802;52.832;4.758;2022-07-29T11:57:29;4.85;;;2.25;;
11490;SDS011;5802;52.832;4.758;2022-07-29T11:59:57;6.20;;;1.88;;
11490;SDS011;5802;52.832;4.758;2022-07-29T12:02:24;8.90;;;2.15;;
11490;SDS011;5802;52.832;4.758;2022-07-29T12:05:03;4.30;;;1.75;;
11490;SDS011;5802;52.832;4.758;2022-07-29T12:07:31;3.75;;;1.60;;
11490;SDS011;5802;52.832;4.758;2022-07-29T12:10:01;5.28;;;1.90;;
11490;SDS011;5802;52.832;4.758;2022-07-29T12:12:28;5.90;;;1.85;;
11490;SDS011;5802;52.832;4.758;2022-07-29T12:14:55;6.03;;;1.75;;
11490;SDS011;5802;52.832;4.758;2022-07-29T12:17:25;5.85;;;1.90;;
11490;SDS011;5802;52.832;4.758;2022-07-29T12:19:53;5.25;;;1.63;;
11490;SDS011;5802;52.832;4.758;2022-07-29T12:22:24;6.93;;;1.70;;
11490;SDS011;5802;52.832;4.758;2022-07-29T12:24:51;3.38;;;1.50;;
11490;SDS011;5802;52.832;4.758;2022-07-29T12:27:19;4.53;;;1.75;;
11490;SDS011;5802;52.832;4.758;2022-07-29T12:29:54;3.83;;;1.67;;
11490;SDS011;5802;52.832;4.758;2022-07-29T12:32:22;3.95;;;1.63;;
11490;SDS011;5802;52.832;4.758;2022-07-29T12:34:49;7.20;;;1.80;;
11490;SDS011;5802;52.832;4.758;2022-07-29T12:37:17;3.78;;;1.70;;
11490;SDS011;5802;52.832;4.758;2022-07-29T12:39:44;2.75;;;1.60;;
11490;SDS011;5802;52.832;4.758;2022-07-29T12:42:11;3.85;;;1.60;;
11490;SDS011;5802;52.832;4.758;2022-07-29T12:44:46;6.00;;;2.10;;
11490;SDS011;5802;52.832;4.758;2022-07-29T12:47:14;4.93;;;1.58;;
11490;SDS011;5802;52.832;4.758;2022-07-29T12:49:43;3.00;;;1.70;;
11490;SDS011;5802;52.832;4.758;2022-07-29T12:52:24;6.43;;;2.08;;
11490;SDS011;5802;52.832;4.758;2022-07-29T12:54:55;5.55;;;1.92;;
11490;SDS011;5802;52.832;4.758;2022-07-29T12:57:21;3.08;;;1.60;;
11490;SDS011;5802;52.832;4.758;2022-07-29T13:00:00;7.18;;;1.88;;
11490;SDS011;5802;52.832;4.758;2022-07-29T13:02:29;3.63;;;1.40;;
11490;SDS011;5802;52.832;4.758;2022-07-29T13:04:56;4.07;;;1.52;;
11490;SDS011;5802;52.832;4.758;2022-07-29T13:07:24;2.40;;;1.52;;
11490;SDS011;5802;52.832;4.758;2022-07-29T13:10:09;7.53;;;1.90;;
11490;SDS011;5802;52.832;4.758;2022-07-29T13:12:38;4.75;;;2.00;;
11490;SDS011;5802;52.832;4.758;2022-07-29T13:15:13;4.53;;;1.67;;
11490;SDS011;5802;52.832;4.758;2022-07-29T13:17:42;5.53;;;1.80;;
11490;SDS011;5802;52.832;4.758;2022-07-29T13:20:09;4.78;;;1.80;;
11490;SDS011;5802;52.832;4.758;2022-07-29T13:22:39;7.43;;;1.90;;
11490;SDS011;5802;52.832;4.758;2022-07-29T13:25:07;4.10;;;1.92;;
11490;SDS011;5802;52.832;4.758;2022-07-29T13:27:35;5.90;;;1.85;;
11490;SDS011;5802;52.832;4.758;2022-07-29T13:30:05;2.63;;;1.55;;
11490;SDS011;5802;52.832;4.758;2022-07-29T13:32:34;3.55;;;1.65;;
11490;SDS011;5802;52.832;4.758;2022-07-29T13:35:03;4.22;;;1.60;;
11490;SDS011;5802;52.832;4.758;2022-07-29T13:37:32;8.48;;;2.15;;
11490;SDS011;5802;52.832;4.758;2022-07-29T13:40:03;4.43;;;1.80;;
11490;SDS011;5802;52.832;4.758;2022-07-29T13:42:31;4.70;;;1.70;;
11490;SDS011;5802;52.832;4.758;2022-07-29T13:44:58;7.43;;;2.10;;
11490;SDS011;5802;52.832;4.758;2022-07-29T13:47:25;4.05;;;2.17;;
11490;SDS011;5802;52.832;4.758;2022-07-29T13:49:54;7.63;;;2.08;;
11490;SDS011;5802;52.832;4.758;2022-07-29T13:52:21;4.47;;;2.08;;
11490;SDS011;5802;52.832;4.758;2022-07-29T13:54:49;4.50;;;2.03;;
11490;SDS011;5802;52.832;4.758;2022-07-29T13:57:16;4.70;;;2.00;;
11490;SDS011;5802;52.832;4.758;2022-07-29T13:59:43;4.97;;;2.20;;
11490;SDS011;5802;52.832;4.758;2022-07-29T14:02:11;5.90;;;1.90;;
11490;SDS011;5802;52.832;4.758;2022-07-29T14:04:38;5.78;;;2.08;;
11490;SDS011;5802;52.832;4.758;2022-07-29T14:07:06;6.40;;;2.20;;
11490;SDS011;5802;52.832;4.758;2022-07-29T14:09:33;3.83;;;1.85;;
11490;SDS011;5802;52.832;4.758;2022-07-29T14:12:00;4.68;;;2.05;;
11490;SDS011;5802;52.832;4.758;2022-07-29T14:14:27;6.55;;;2.22;;
11490;SDS011;5802;52.832;4.758;2022-07-29T14:16:54;4.15;;;2.13;;
11490;SDS011;5802;52.832;4.758;2022-07-29T14:19:21;4.70;;;2.35;;
11490;SDS011;5802;52.832;4.758;2022-07-29T14:21:47;4.13;;;2.08;;
11490;SDS011;5802;52.832;4.758;2022-07-29T14:24:15;6.28;;;2.20;;
11490;SDS011;5802;52.832;4.758;2022-07-29T14:26:42;4.00;;;2.10;;
11490;SDS011;5802;52.832;4.758;2022-07-29T14:29:09;5.40;;;2.42;;
11490;SDS011;5802;52.832;4.758;2022-07-29T14:31:36;4.70;;;2.22;;
11490;SDS011;5802;52.832;4.758;2022-07-29T14:34:03;5.55;;;2.15;;
11490;SDS011;5802;52.832;4.758;2022-07-29T14:36:30;5.75;;;2.53;;
11490;SDS011;5802;52.832;4.758;2022-07-29T14:38:57;4.45;;;2.15;;
11490;SDS011;5802;52.832;4.758;2022-07-29T14:41:25;6.93;;;2.78;;
11490;SDS011;5802;52.832;4.758;2022-07-29T14:43:53;6.30;;;2.38;;
11490;SDS011;5802;52.832;4.758;2022-07-29T14:46:19;6.22;;;2.00;;
11490;SDS011;5802;52.832;4.758;2022-07-29T14:48:46;4.85;;;2.10;;
11490;SDS011;5802;52.832;4.758;2022-07-29T14:51:13;4.70;;;2.05;;
11490;SDS011;5802;52.832;4.758;2022-07-29T14:53:40;6.88;;;2.38;;
11490;SDS011;5802;52.832;4.758;2022-07-29T14:56:06;5.43;;;2.53;;
11490;SDS011;5802;52.832;4.758;2022-07-29T14:58:34;6.63;;;2.33;;
11490;SDS011;5802;52.832;4.758;2022-07-29T15:01:02;5.03;;;2.22;;
11490;SDS011;5802;52.832;4.758;2022-07-29T15:03:29;6.43;;;2.20;;
11490;SDS011;5802;52.832;4.758;2022-07-29T15:05:56;4.72;;;2.58;;
11490;SDS011;5802;52.832;4.758;2022-07-29T15:08:22;4.75;;;2.10;;
11490;SDS011;5802;52.832;4.758;2022-07-29T15:10:50;9.05;;;2.53;;
11490;SDS011;5802;52.832;4.758;2022-07-29T15:13:17;6.65;;;2.30;;
11490;SDS011;5802;52.832;4.758;2022-07-29T15:15:45;3.30;;;1.90;;
11490;SDS011;5802;52.832;4.758;2022-07-29T15:18:12;7.40;;;2.20;;
11490;SDS011;5802;52.832;4.758;2022-07-29T15:20:38;4.53;;;1.80;;